sensor_id;sensor_type;location;lat;lon;timestamp;pressure;altitude;pressure_sealevel;temperature;humidity
4392;BME280;2210;51.938;8.488;2023-04-09T10:45:23;101462.59;;;12.42;59.13
4392;BME280;2210;51.938;8.488;2023-04-09T10:49:26;101460.34;;;12.51;59.58
4392;BME280;2210;51.938;8.488;2023-04-09T10:53:26;101466.22;;;12.61;59.34
4392;BME280;2210;51.938;8.488;2023-04-09T10:57:26;101463.88;;;12.39;57.24
4392;BME280;2210;51.938;8.488;2023-04-09T11:01:27;101463.03;;;12.39;57.72
4392;BME280;2210;51.938;8.488;2023-04-09T11:05:36;101461.13;;;12.39;56.80
4392;BME280;2210;51.938;8.488;2023-04-09T11:09:41;101456.09;;;12.29;57.28
4392;BME280;2210;51.938;8.488;2023-04-09T11:13:42;101445.47;;;12.52;59.55
4392;BME280;2210;51.938;8.488;2023-04-09T11:17:43;101453.03;;;12.38;57.74
4392;BME280;2210;51.938;8.488;2023-04-09T11:21:43;101454.22;;;12.23;58.45
4392;BME280;2210;51.938;8.488;2023-04-09T11:25:48;101447.47;;;12.19;58.65
4392;BME280;2210;51.938;8.488;2023-04-09T11:30:02;101440.97;;;12.32;58.82
4392;BME280;2210;51.938;8.488;2023-04-09T11:34:09;101441.75;;;12.39;58.48
4392;BME280;2210;51.938;8.488;2023-04-09T11:38:11;101439.56;;;12.48;59.07
4392;BME280;2210;51.938;8.488;2023-04-09T11:42:17;101438.38;;;12.12;57.57
4392;BME280;2210;51.938;8.488;2023-04-09T11:46:17;101445.31;;;12.21;58.32
4392;BME280;2210;51.938;8.488;2023-04-09T11:50:26;101439.28;;;12.31;57.65
4392;BME280;2210;51.938;8.488;2023-04-09T11:54:33;101434.47;;;12.45;58.00
4392;BME280;2210;51.938;8.488;2023-04-09T11:58:36;101432.34;;;12.47;56.88
4392;BME280;2210;51.938;8.488;2023-04-09T12:02:38;101430.22;;;12.42;57.97
4392;BME280;2210;51.938;8.488;2023-04-09T12:06:45;101432.34;;;12.47;57.84
4392;BME280;2210;51.938;8.488;2023-04-09T12:10:48;101432.50;;;12.52;57.86
4392;BME280;2210;51.938;8.488;2023-04-09T12:14:48;101437.78;;;12.54;57.26
4392;BME280;2210;51.938;8.488;2023-04-09T12:18:53;101432.69;;;12.51;57.37
4392;BME280;2210;51.938;8.488;2023-04-09T12:22:58;101444.09;;;12.61;56.47
4392;BME280;2210;51.938;8.488;2023-04-09T12:27:07;101430.50;;;12.59;55.23
4392;BME280;2210;51.938;8.488;2023-04-09T12:31:10;101434.59;;;12.75;56.22
4392;BME280;2210;51.938;8.488;2023-04-09T12:35:16;101435.56;;;12.62;54.77
4392;BME280;2210;51.938;8.488;2023-04-09T12:39:17;101428.25;;;12.68;55.05
4392;BME280;2210;51.938;8.488;2023-04-09T12:43:17;101426.66;;;12.60;54.52
4392;BME280;2210;51.938;8.488;2023-04-09T12:47:21;101426.13;;;12.70;54.46
4392;BME280;2210;51.938;8.488;2023-04-09T12:51:21;101425.44;;;12.56;54.87
4392;BME280;2210;51.938;8.488;2023-04-09T12:55:25;101425.13;;;12.83;55.04
4392;BME280;2210;51.938;8.488;2023-04-09T12:59:26;101419.81;;;12.81;54.27
4392;BME280;2210;51.938;8.488;2023-04-09T13:03:33;101421.03;;;12.86;53.67
4392;BME280;2210;51.938;8.488;2023-04-09T13:07:33;101415.38;;;12.80;53.65
4392;BME280;2210;51.938;8.488;2023-04-09T13:11:33;101406.56;;;13.02;55.04
4392;BME280;2210;51.938;8.488;2023-04-09T13:15:41;101399.09;;;13.70;52.55
4392;BME280;2210;51.938;8.488;2023-04-09T13:19:53;101398.09;;;13.34;51.48
4392;BME280;2210;51.938;8.488;2023-04-09T13:23:56;101394.19;;;13.42;52.26
4392;BME280;2210;51.938;8.488;2023-04-09T13:28:02;101402.09;;;13.38;51.20
4392;BME280;2210;51.938;8.488;2023-04-09T13:32:03;101397.13;;;13.10;50.80
4392;BME280;2210;51.938;8.488;2023-04-09T13:36:09;101399.06;;;13.09;51.65
4392;BME280;2210;51.938;8.488;2023-04-09T13:40:12;101391.56;;;13.28;50.64
4392;BME280;2210;51.938;8.488;2023-04-09T13:44:12;101387.81;;;13.04;50.46
4392;BME280;2210;51.938;8.488;2023-04-09T13:48:13;101385.28;;;13.03;51.85
4392;BME280;2210;51.938;8.488;2023-04-09T13:52:13;101376.59;;;13.18;51.91
4392;BME280;2210;51.938;8.488;2023-04-09T13:56:14;101380.72;;;13.27;51.90
4392;BME280;2210;51.938;8.488;2023-04-09T14:00:15;101375.63;;;13.24;51.01
4392;BME280;2210;51.938;8.488;2023-04-09T14:04:19;101369.44;;;13.10;53.12
4392;BME280;2210;51.938;8.488;2023-04-09T14:08:19;101371.09;;;13.29;52.36
4392;BME280;2210;51.938;8.488;2023-04-09T14:12:20;101371.88;;;13.18;51.03
4392;BME280;2210;51.938;8.488;2023-04-09T14:16:20;101372.06;;;13.35;51.36
4392;BME280;2210;51.938;8.488;2023-04-09T14:20:24;101371.03;;;13.18;51.27
4392;BME280;2210;51.938;8.488;2023-04-09T14:24:24;101360.56;;;13.20;51.76
4392;BME280;2210;51.938;8.488;2023-04-09T14:28:25;101367.72;;;13.09;53.12
4392;BME280;2210;51.938;8.488;2023-04-09T14:32:28;101367.22;;;12.81;53.21
4392;BME280;2210;51.938;8.488;2023-04-09T14:36:28;101362.16;;;12.97;53.33
4392;BME280;2210;51.938;8.488;2023-04-09T14:40:32;101365.75;;;12.97;52.64
4392;BME280;2210;51.938;8.488;2023-04-09T14:44:32;101363.63;;;12.99;52.88
4392;BME280;2210;51.938;8.488;2023-04-09T14:48:33;101358.91;;;13.00;53.56
4392;BME280;2210;51.938;8.488;2023-04-09T14:52:36;101359.41;;;12.97;54.00
4392;BME280;2210;51.938;8.488;2023-04-09T14:56:36;101354.09;;;12.77;54.04
4392;BME280;2210;51.938;8.488;2023-04-09T15:00:36;101357.72;;;12.77;54.64
4392;BME280;2210;51.938;8.488;2023-04-09T15:04:37;101348.56;;;12.77;54.69
4392;BME280;2210;51.938;8.488;2023-04-09T15:08:38;101348.09;;;12.80;55.20
4392;BME280;2210;51.938;8.488;2023-04-09T15:12:38;101347.66;;;12.64;54.90
4392;BME280;2210;51.938;8.488;2023-04-09T15:16:44;101340.94;;;12.72;55.62
4392;BME280;2210;51.938;8.488;2023-04-09T15:20:48;101347.19;;;12.68;55.21
4392;BME280;2210;51.938;8.488;2023-04-09T15:24:55;101349.88;;;12.74;54.58
4392;BME280;2210;51.938;8.488;2023-04-09T15:29:05;101347.28;;;12.61;55.00
4392;BME280;2210;51.938;8.488;2023-04-09T15:33:05;101344.03;;;12.64;54.71
4392;BME280;2210;51.938;8.488;2023-04-09T15:37:06;101339.72;;;12.68;54.25
4392;BME280;2210;51.938;8.488;2023-04-09T15:41:06;101346.13;;;12.69;54.99
4392;BME280;2210;51.938;8.488;2023-04-09T15:45:09;101343.03;;;12.77;54.35
4392;BME280;2210;51.938;8.488;2023-04-09T15:49:22;101340.59;;;12.69;53.83
4392;BME280;2210;51.938;8.488;2023-04-09T15:53:22;101339.13;;;12.66;54.13
4392;BME280;2210;51.938;8.488;2023-04-09T15:57:25;101335.88;;;12.69;52.70
4392;BME280;2210;51.938;8.488;2023-04-09T16:01:30;101330.50;;;12.56;53.25
4392;BME280;2210;51.938;8.488;2023-04-09T16:05:30;101329.13;;;12.65;51.54
4392;BME280;2210;51.938;8.488;2023-04-09T16:09:33;101329.44;;;12.57;51.50
4392;BME280;2210;51.938;8.488;2023-04-09T16:13:33;101322.59;;;12.59;50.87
4392;BME280;2210;51.938;8.488;2023-04-09T16:17:36;101321.63;;;12.54;50.71
4392;BME280;2210;51.938;8.488;2023-04-09T16:21:37;101324.06;;;12.62;51.76
4392;BME280;2210;51.938;8.488;2023-04-09T16:25:42;101319.00;;;12.59;50.91
4392;BME280;2210;51.938;8.488;2023-04-09T16:29:42;101335.50;;;12.65;51.63
4392;BME280;2210;51.938;8.488;2023-04-09T16:33:43;101325.28;;;12.66;52.34
4392;BME280;2210;51.938;8.488;2023-04-09T16:37:43;101327.50;;;12.57;51.96
4392;BME280;2210;51.938;8.488;2023-04-09T16:41:43;101329.22;;;12.58;52.95
4392;BME280;2210;51.938;8.488;2023-04-09T16:45:44;101329.59;;;12.62;54.86
4392;BME280;2210;51.938;8.488;2023-04-09T16:49:53;101325.28;;;12.66;53.17
4392;BME280;2210;51.938;8.488;2023-04-09T16:53:53;101322.69;;;12.53;52.38
4392;BME280;2210;51.938;8.488;2023-04-09T17:07:11;101323.06;;;12.38;54.48
4392;BME280;2210;51.938;8.488;2023-04-09T17:11:15;101323.13;;;12.31;54.44
4392;BME280;2210;51.938;8.488;2023-04-09T17:15:24;101317.84;;;12.29;55.17
4392;BME280;2210;51.938;8.488;2023-04-09T17:19:25;101303.75;;;12.12;55.08
4392;BME280;2210;51.938;8.488;2023-04-09T17:23:41;101305.53;;;12.07;55.81
4392;BME280;2210;51.938;8.488;2023-04-09T17:27:46;101304.34;;;11.96;55.61
4392;BME280;2210;51.938;8.488;2023-04-09T17:31:52;101306.16;;;11.84;56.16
4392;BME280;2210;51.938;8.488;2023-04-09T17:35:59;101302.84;;;11.75;56.18
4392;BME280;2210;51.938;8.488;2023-04-09T17:40:07;101304.13;;;11.72;56.59
4392;BME280;2210;51.938;8.488;2023-04-09T17:44:10;101303.50;;;11.70;56.34
4392;BME280;2210;51.938;8.488;2023-04-09T17:48:11;101293.84;;;11.54;56.64
4392;BME280;2210;51.938;8.488;2023-04-09T17:52:14;101300.50;;;11.46;57.42
4392;BME280;2210;51.938;8.488;2023-04-09T17:56:15;101293.13;;;11.40;57.38
4392;BME280;2210;51.938;8.488;2023-04-09T18:00:16;101296.16;;;11.32;58.23
4392;BME280;2210;51.938;8.488;2023-04-09T18:04:16;101297.31;;;11.18;59.19
4392;BME280;2210;51.938;8.488;2023-04-09T18:08:19;101293.41;;;11.00;59.98
4392;BME280;2210;51.938;8.488;2023-04-09T18:12:23;101290.03;;;10.91;59.99
4392;BME280;2210;51.938;8.488;2023-04-09T18:16:23;101297.91;;;10.88;60.19
4392;BME280;2210;51.938;8.488;2023-04-09T18:20:26;101289.66;;;10.81;59.87
4392;BME280;2210;51.938;8.488;2023-04-09T18:24:27;101297.63;;;10.64;60.59
4392;BME280;2210;51.938;8.488;2023-04-09T18:28:46;101284.75;;;10.44;62.15
4392;BME280;2210;51.938;8.488;2023-04-09T18:32:49;101295.16;;;10.42;61.33
4392;BME280;2210;51.938;8.488;2023-04-09T18:36:54;101304.91;;;10.25;62.88
4392;BME280;2210;51.938;8.488;2023-04-09T18:40:57;101312.59;;;10.09;65.96
4392;BME280;2210;51.938;8.488;2023-04-09T18:45:00;101303.72;;;9.81;65.68
4392;BME280;2210;51.938;8.488;2023-04-09T18:49:01;101307.13;;;9.76;66.06
4392;BME280;2210;51.938;8.488;2023-04-09T18:53:01;101313.50;;;9.56;68.60
4392;BME280;2210;51.938;8.488;2023-04-09T18:57:21;101321.31;;;9.53;69.75
4392;BME280;2210;51.938;8.488;2023-04-09T19:01:22;101313.28;;;9.44;68.20
4392;BME280;2210;51.938;8.488;2023-04-09T19:05:41;101309.25;;;9.47;69.85
4392;BME280;2210;51.938;8.488;2023-04-09T19:09:44;101328.09;;;9.43;69.78
4392;BME280;2210;51.938;8.488;2023-04-09T19:13:44;101332.28;;;9.26;72.06
4392;BME280;2210;51.938;8.488;2023-04-09T19:17:45;101330.59;;;9.11;71.43
4392;BME280;2210;51.938;8.488;2023-04-09T19:21:52;101336.28;;;9.17;73.32
4392;BME280;2210;51.938;8.488;2023-04-09T19:25:55;101337.09;;;8.97;71.76
4392;BME280;2210;51.938;8.488;2023-04-09T19:29:59;101338.97;;;8.90;74.08
4392;BME280;2210;51.938;8.488;2023-04-09T19:34:00;101342.06;;;8.73;74.66
4392;BME280;2210;51.938;8.488;2023-04-09T19:38:09;101347.75;;;8.65;77.29
4392;BME280;2210;51.938;8.488;2023-04-09T19:42:12;101346.00;;;8.51;77.02
4392;BME280;2210;51.938;8.488;2023-04-09T19:46:25;101349.63;;;8.58;74.02
4392;BME280;2210;51.938;8.488;2023-04-09T19:50:25;101345.00;;;8.65;74.64
4392;BME280;2210;51.938;8.488;2023-04-09T19:54:27;101342.72;;;8.40;76.43
4392;BME280;2210;51.938;8.488;2023-04-09T19:58:27;101342.09;;;8.38;75.01
4392;BME280;2210;51.938;8.488;2023-04-09T20:02:27;101341.28;;;8.44;75.54
4392;BME280;2210;51.938;8.488;2023-04-09T20:06:28;101334.56;;;8.19;77.68
4392;BME280;2210;51.938;8.488;2023-04-09T20:10:29;101334.56;;;8.19;80.30
4392;BME280;2210;51.938;8.488;2023-04-09T20:14:46;101336.19;;;8.06;80.86
4392;BME280;2210;51.938;8.488;2023-04-09T20:18:53;101331.47;;;8.00;81.44
4392;BME280;2210;51.938;8.488;2023-04-09T20:22:57;101326.75;;;7.87;82.69
4392;BME280;2210;51.938;8.488;2023-04-09T20:26:57;101334.31;;;7.79;82.20
4392;BME280;2210;51.938;8.488;2023-04-09T20:31:01;101327.91;;;7.71;82.48
4392;BME280;2210;51.938;8.488;2023-04-09T20:35:02;101324.00;;;7.59;81.42
4392;BME280;2210;51.938;8.488;2023-04-09T20:39:03;101316.09;;;7.49;83.07
4392;BME280;2210;51.938;8.488;2023-04-09T20:43:15;101317.09;;;7.41;84.52
4392;BME280;2210;51.938;8.488;2023-04-09T20:47:15;101316.06;;;7.21;83.34
4392;BME280;2210;51.938;8.488;2023-04-09T20:51:16;101316.53;;;7.24;85.75
4392;BME280;2210;51.938;8.488;2023-04-09T20:55:19;101315.59;;;7.17;86.02
4392;BME280;2210;51.938;8.488;2023-04-09T20:59:26;101309.53;;;7.00;85.21
4392;BME280;2210;51.938;8.488;2023-04-09T21:03:26;101312.38;;;6.92;87.69
4392;BME280;2210;51.938;8.488;2023-04-09T21:07:26;101304.41;;;6.75;86.74
4392;BME280;2210;51.938;8.488;2023-04-09T21:11:28;101305.88;;;6.78;88.86
4392;BME280;2210;51.938;8.488;2023-04-09T21:15:28;101299.56;;;6.78;88.94
4392;BME280;2210;51.938;8.488;2023-04-09T21:19:28;101291.06;;;6.72;87.72
4392;BME280;2210;51.938;8.488;2023-04-09T21:23:31;101298.44;;;6.72;88.22
4392;BME280;2210;51.938;8.488;2023-04-09T21:27:41;101295.75;;;6.57;88.07
4392;BME280;2210;51.938;8.488;2023-04-09T21:31:41;101301.22;;;6.57;88.32
4392;BME280;2210;51.938;8.488;2023-04-09T21:35:44;101306.50;;;6.58;89.00
4392;BME280;2210;51.938;8.488;2023-04-09T21:39:48;101293.03;;;6.27;88.69
4392;BME280;2210;51.938;8.488;2023-04-09T21:43:51;101297.38;;;6.36;88.15
4392;BME280;2210;51.938;8.488;2023-04-09T21:47:51;101301.91;;;6.29;89.43
4392;BME280;2210;51.938;8.488;2023-04-09T21:51:57;101286.16;;;6.16;89.67
4392;BME280;2210;51.938;8.488;2023-04-09T21:56:02;101281.50;;;6.17;89.37
4392;BME280;2210;51.938;8.488;2023-04-09T22:00:03;101281.41;;;6.25;90.13
4392;BME280;2210;51.938;8.488;2023-04-09T22:04:10;101286.69;;;6.27;90.99
4392;BME280;2210;51.938;8.488;2023-04-09T22:08:13;101270.09;;;6.28;90.15
4392;BME280;2210;51.938;8.488;2023-04-09T22:12:13;101262.16;;;6.18;90.54
4392;BME280;2210;51.938;8.488;2023-04-09T22:16:17;101264.81;;;6.12;91.14
4392;BME280;2210;51.938;8.488;2023-04-09T22:20:24;101262.84;;;6.05;91.77
4392;BME280;2210;51.938;8.488;2023-04-09T22:24:25;101268.59;;;6.11;92.00
4392;BME280;2210;51.938;8.488;2023-04-09T22:28:26;101262.34;;;6.02;91.49
4392;BME280;2210;51.938;8.488;2023-04-09T22:32:46;101266.28;;;5.84;92.20
4392;BME280;2210;51.938;8.488;2023-04-09T22:36:50;101278.19;;;5.77;93.06
4392;BME280;2210;51.938;8.488;2023-04-09T22:40:50;101279.78;;;5.86;92.54
4392;BME280;2210;51.938;8.488;2023-04-09T22:45:03;101280.66;;;5.86;94.27
4392;BME280;2210;51.938;8.488;2023-04-09T22:49:09;101266.66;;;5.81;93.38
4392;BME280;2210;51.938;8.488;2023-04-09T22:53:14;101281.66;;;5.70;93.18
4392;BME280;2210;51.938;8.488;2023-04-09T22:57:17;101273.53;;;5.62;95.64
4392;BME280;2210;51.938;8.488;2023-04-09T23:01:18;101272.22;;;5.58;94.18
4392;BME280;2210;51.938;8.488;2023-04-09T23:05:24;101271.91;;;5.53;96.19
4392;BME280;2210;51.938;8.488;2023-04-09T23:09:24;101274.00;;;5.51;96.26
4392;BME280;2210;51.938;8.488;2023-04-09T23:13:27;101272.66;;;5.47;96.51
4392;BME280;2210;51.938;8.488;2023-04-09T23:17:27;101270.84;;;5.39;95.27
4392;BME280;2210;51.938;8.488;2023-04-09T23:21:27;101265.91;;;5.34;95.38
4392;BME280;2210;51.938;8.488;2023-04-09T23:25:28;101272.63;;;5.32;96.86
4392;BME280;2210;51.938;8.488;2023-04-09T23:29:28;101271.47;;;5.26;97.45
4392;BME280;2210;51.938;8.488;2023-04-09T23:33:29;101274.94;;;5.20;97.36
4392;BME280;2210;51.938;8.488;2023-04-09T23:37:48;101272.03;;;5.21;97.83
4392;BME280;2210;51.938;8.488;2023-04-09T23:41:49;101278.59;;;5.12;99.15
4392;BME280;2210;51.938;8.488;2023-04-09T23:45:49;101281.13;;;5.14;100.00
4392;BME280;2210;51.938;8.488;2023-04-09T23:49:49;101274.53;;;5.08;100.00
4392;BME280;2210;51.938;8.488;2023-04-09T23:53:49;101275.78;;;4.97;98.44
4392;BME280;2210;51.938;8.488;2023-04-09T23:57:56;101269.69;;;4.87;98.22
